sensor_id;sensor_type;location;lat;lon;timestamp;temperature;humidity
33207;DHT22;19565;46.602;11.534;2022-07-23T00:01:29;28.50;52.10
33207;DHT22;19565;46.602;11.534;2022-07-23T00:03:57;28.50;52.60
33207;DHT22;19565;46.602;11.534;2022-07-23T00:06:26;28.50;53.40
33207;DHT22;19565;46.602;11.534;2022-07-23T00:08:54;28.50;53.50
33207;DHT22;19565;46.602;11.534;2022-07-23T00:11:22;28.40;53.50
33207;DHT22;19565;46.602;11.534;2022-07-23T00:13:52;28.30;54.60
33207;DHT22;19565;46.602;11.534;2022-07-23T00:16:21;28.30;53.40
33207;DHT22;19565;46.602;11.534;2022-07-23T00:18:49;28.20;53.70
33207;DHT22;19565;46.602;11.534;2022-07-23T00:21:17;28.20;54.40
33207;DHT22;19565;46.602;11.534;2022-07-23T00:23:46;28.20;55.30
33207;DHT22;19565;46.602;11.534;2022-07-23T00:26:14;28.20;54.90
33207;DHT22;19565;46.602;11.534;2022-07-23T00:28:42;28.20;54.90
33207;DHT22;19565;46.602;11.534;2022-07-23T00:31:11;28.10;55.60
33207;DHT22;19565;46.602;11.534;2022-07-23T00:33:40;28.10;55.30
33207;DHT22;19565;46.602;11.534;2022-07-23T00:36:08;28.10;55.00
33207;DHT22;19565;46.602;11.534;2022-07-23T00:38:36;28.00;53.80
33207;DHT22;19565;46.602;11.534;2022-07-23T00:41:05;28.00;53.70
33207;DHT22;19565;46.602;11.534;2022-07-23T00:43:33;27.90;51.10
33207;DHT22;19565;46.602;11.534;2022-07-23T00:46:01;27.90;51.20
33207;DHT22;19565;46.602;11.534;2022-07-23T00:48:31;28.00;50.50
33207;DHT22;19565;46.602;11.534;2022-07-23T00:51:01;27.90;50.00
33207;DHT22;19565;46.602;11.534;2022-07-23T00:53:29;27.80;50.30
33207;DHT22;19565;46.602;11.534;2022-07-23T00:55:58;27.60;50.50
33207;DHT22;19565;46.602;11.534;2022-07-23T00:58:26;27.60;50.50
33207;DHT22;19565;46.602;11.534;2022-07-23T01:00:55;27.70;50.60
33207;DHT22;19565;46.602;11.534;2022-07-23T01:03:23;27.70;50.10
33207;DHT22;19565;46.602;11.534;2022-07-23T01:05:53;27.60;49.90
33207;DHT22;19565;46.602;11.534;2022-07-23T01:08:21;27.60;50.20
33207;DHT22;19565;46.602;11.534;2022-07-23T01:10:50;27.70;50.60
33207;DHT22;19565;46.602;11.534;2022-07-23T01:13:19;27.90;50.40
33207;DHT22;19565;46.602;11.534;2022-07-23T01:15:47;27.90;50.10
33207;DHT22;19565;46.602;11.534;2022-07-23T01:18:15;27.70;50.60
33207;DHT22;19565;46.602;11.534;2022-07-23T01:20:43;27.70;50.90
33207;DHT22;19565;46.602;11.534;2022-07-23T01:23:13;27.60;51.10
33207;DHT22;19565;46.602;11.534;2022-07-23T01:25:48;27.30;51.60
33207;DHT22;19565;46.602;11.534;2022-07-23T01:28:16;27.30;51.80
33207;DHT22;19565;46.602;11.534;2022-07-23T01:30:44;27.50;51.60
33207;DHT22;19565;46.602;11.534;2022-07-23T01:33:12;27.50;51.60
33207;DHT22;19565;46.602;11.534;2022-07-23T01:35:41;27.50;51.80
33207;DHT22;19565;46.602;11.534;2022-07-23T01:38:09;27.50;51.80
33207;DHT22;19565;46.602;11.534;2022-07-23T01:40:39;27.00;52.80
33207;DHT22;19565;46.602;11.534;2022-07-23T01:43:08;26.80;53.50
33207;DHT22;19565;46.602;11.534;2022-07-23T01:45:37;26.80;53.50
33207;DHT22;19565;46.602;11.534;2022-07-23T01:48:06;26.70;53.80
33207;DHT22;19565;46.602;11.534;2022-07-23T01:50:36;26.50;54.10
33207;DHT22;19565;46.602;11.534;2022-07-23T01:53:05;26.50;54.30
33207;DHT22;19565;46.602;11.534;2022-07-23T01:55:33;26.60;54.50
33207;DHT22;19565;46.602;11.534;2022-07-23T01:58:02;26.70;54.20
33207;DHT22;19565;46.602;11.534;2022-07-23T02:00:30;26.70;54.40
33207;DHT22;19565;46.602;11.534;2022-07-23T02:02:59;26.70;54.20
33207;DHT22;19565;46.602;11.534;2022-07-23T02:05:27;26.60;54.40
33207;DHT22;19565;46.602;11.534;2022-07-23T02:07:57;26.50;54.60
33207;DHT22;19565;46.602;11.534;2022-07-23T02:10:25;26.50;54.50
33207;DHT22;19565;46.602;11.534;2022-07-23T02:12:54;26.80;54.60
33207;DHT22;19565;46.602;11.534;2022-07-23T02:15:23;26.90;54.80
33207;DHT22;19565;46.602;11.534;2022-07-23T02:17:51;26.90;54.50
33207;DHT22;19565;46.602;11.534;2022-07-23T02:20:19;26.90;54.10
33207;DHT22;19565;46.602;11.534;2022-07-23T02:22:47;27.00;54.20
33207;DHT22;19565;46.602;11.534;2022-07-23T02:25:16;27.00;54.20
33207;DHT22;19565;46.602;11.534;2022-07-23T02:27:44;27.10;54.80
33207;DHT22;19565;46.602;11.534;2022-07-23T02:30:12;27.10;55.40
33207;DHT22;19565;46.602;11.534;2022-07-23T02:32:42;27.10;54.70
33207;DHT22;19565;46.602;11.534;2022-07-23T02:35:10;26.90;53.90
33207;DHT22;19565;46.602;11.534;2022-07-23T02:37:38;26.60;54.50
33207;DHT22;19565;46.602;11.534;2022-07-23T02:40:07;26.20;55.70
33207;DHT22;19565;46.602;11.534;2022-07-23T02:42:35;26.20;55.80
33207;DHT22;19565;46.602;11.534;2022-07-23T02:45:04;26.40;56.20
33207;DHT22;19565;46.602;11.534;2022-07-23T02:47:32;26.60;55.10
33207;DHT22;19565;46.602;11.534;2022-07-23T02:50:02;26.60;54.70
33207;DHT22;19565;46.602;11.534;2022-07-23T02:52:32;26.00;55.80
33207;DHT22;19565;46.602;11.534;2022-07-23T02:55:00;25.70;56.60
33207;DHT22;19565;46.602;11.534;2022-07-23T02:57:28;25.50;57.30
33207;DHT22;19565;46.602;11.534;2022-07-23T02:59:56;25.40;57.60
33207;DHT22;19565;46.602;11.534;2022-07-23T03:02:24;25.40;57.30
33207;DHT22;19565;46.602;11.534;2022-07-23T03:04:53;25.40;57.30
33207;DHT22;19565;46.602;11.534;2022-07-23T03:07:22;25.50;57.10
33207;DHT22;19565;46.602;11.534;2022-07-23T03:09:50;25.60;57.00
33207;DHT22;19565;46.602;11.534;2022-07-23T03:12:20;25.80;56.60
33207;DHT22;19565;46.602;11.534;2022-07-23T03:14:49;25.90;56.40
33207;DHT22;19565;46.602;11.534;2022-07-23T03:17:17;26.10;56.10
33207;DHT22;19565;46.602;11.534;2022-07-23T03:19:45;26.30;56.20
33207;DHT22;19565;46.602;11.534;2022-07-23T03:22:13;26.40;56.30
33207;DHT22;19565;46.602;11.534;2022-07-23T03:24:43;26.50;55.80
33207;DHT22;19565;46.602;11.534;2022-07-23T03:27:25;26.60;55.50
33207;DHT22;19565;46.602;11.534;2022-07-23T03:29:57;25.90;57.30
33207;DHT22;19565;46.602;11.534;2022-07-23T03:32:25;25.50;57.30
33207;DHT22;19565;46.602;11.534;2022-07-23T03:34:54;25.90;57.10
33207;DHT22;19565;46.602;11.534;2022-07-23T03:37:23;26.10;57.10
33207;DHT22;19565;46.602;11.534;2022-07-23T03:39:53;26.30;56.80
33207;DHT22;19565;46.602;11.534;2022-07-23T03:42:21;26.40;56.30
33207;DHT22;19565;46.602;11.534;2022-07-23T03:44:49;26.40;55.90
33207;DHT22;19565;46.602;11.534;2022-07-23T03:47:17;26.40;55.80
33207;DHT22;19565;46.602;11.534;2022-07-23T03:49:48;26.50;55.70
33207;DHT22;19565;46.602;11.534;2022-07-23T03:52:16;26.60;56.60
33207;DHT22;19565;46.602;11.534;2022-07-23T03:54:44;26.60;57.20
33207;DHT22;19565;46.602;11.534;2022-07-23T03:57:14;26.60;56.90
33207;DHT22;19565;46.602;11.534;2022-07-23T03:59:42;26.50;55.90
33207;DHT22;19565;46.602;11.534;2022-07-23T04:02:10;26.50;55.70
33207;DHT22;19565;46.602;11.534;2022-07-23T04:04:38;26.40;56.50
33207;DHT22;19565;46.602;11.534;2022-07-23T04:07:06;26.50;57.10
33207;DHT22;19565;46.602;11.534;2022-07-23T04:09:35;26.50;57.40
33207;DHT22;19565;46.602;11.534;2022-07-23T04:12:03;26.10;56.80
33207;DHT22;19565;46.602;11.534;2022-07-23T04:14:33;26.00;61.40
33207;DHT22;19565;46.602;11.534;2022-07-23T04:17:01;25.80;63.20
33207;DHT22;19565;46.602;11.534;2022-07-23T04:19:29;25.50;64.70
33207;DHT22;19565;46.602;11.534;2022-07-23T04:21:58;25.40;70.20
33207;DHT22;19565;46.602;11.534;2022-07-23T04:24:26;25.20;73.30
33207;DHT22;19565;46.602;11.534;2022-07-23T04:26:54;25.20;75.10
33207;DHT22;19565;46.602;11.534;2022-07-23T04:29:22;25.10;74.90
33207;DHT22;19565;46.602;11.534;2022-07-23T04:31:51;25.00;77.40
33207;DHT22;19565;46.602;11.534;2022-07-23T04:34:22;25.00;78.30
33207;DHT22;19565;46.602;11.534;2022-07-23T04:36:50;24.80;76.70
33207;DHT22;19565;46.602;11.534;2022-07-23T04:39:18;24.90;78.30
33207;DHT22;19565;46.602;11.534;2022-07-23T04:41:47;24.90;78.50
33207;DHT22;19565;46.602;11.534;2022-07-23T04:44:15;24.60;78.20
33207;DHT22;19565;46.602;11.534;2022-07-23T04:46:43;24.50;79.70
33207;DHT22;19565;46.602;11.534;2022-07-23T04:49:14;24.30;79.30
33207;DHT22;19565;46.602;11.534;2022-07-23T04:51:44;24.30;79.50
33207;DHT22;19565;46.602;11.534;2022-07-23T04:54:12;24.20;79.40
33207;DHT22;19565;46.602;11.534;2022-07-23T04:56:40;23.50;82.60
33207;DHT22;19565;46.602;11.534;2022-07-23T04:59:09;22.70;84.90
33207;DHT22;19565;46.602;11.534;2022-07-23T05:01:37;22.40;87.10
33207;DHT22;19565;46.602;11.534;2022-07-23T05:04:05;22.00;88.60
33207;DHT22;19565;46.602;11.534;2022-07-23T05:06:35;22.30;88.40
33207;DHT22;19565;46.602;11.534;2022-07-23T05:09:03;22.00;90.00
33207;DHT22;19565;46.602;11.534;2022-07-23T05:11:31;21.70;90.90
33207;DHT22;19565;46.602;11.534;2022-07-23T05:14:00;21.70;91.00
33207;DHT22;19565;46.602;11.534;2022-07-23T05:16:28;22.00;90.50
33207;DHT22;19565;46.602;11.534;2022-07-23T05:18:56;22.20;90.20
33207;DHT22;19565;46.602;11.534;2022-07-23T05:21:25;22.10;90.10
33207;DHT22;19565;46.602;11.534;2022-07-23T05:23:54;22.20;90.00
33207;DHT22;19565;46.602;11.534;2022-07-23T05:26:23;22.30;89.40
33207;DHT22;19565;46.602;11.534;2022-07-23T05:28:51;22.20;88.20
33207;DHT22;19565;46.602;11.534;2022-07-23T05:31:19;22.50;87.30
33207;DHT22;19565;46.602;11.534;2022-07-23T05:33:47;22.70;86.90
33207;DHT22;19565;46.602;11.534;2022-07-23T05:36:16;23.10;87.10
33207;DHT22;19565;46.602;11.534;2022-07-23T05:38:44;23.30;87.60
33207;DHT22;19565;46.602;11.534;2022-07-23T05:41:14;23.50;87.30
33207;DHT22;19565;46.602;11.534;2022-07-23T05:43:42;23.70;88.30
33207;DHT22;19565;46.602;11.534;2022-07-23T05:46:11;23.20;86.50
33207;DHT22;19565;46.602;11.534;2022-07-23T05:48:40;22.40;90.20
33207;DHT22;19565;46.602;11.534;2022-07-23T05:51:09;22.10;91.40
33207;DHT22;19565;46.602;11.534;2022-07-23T05:53:37;21.80;92.70
33207;DHT22;19565;46.602;11.534;2022-07-23T05:56:05;21.60;93.50
33207;DHT22;19565;46.602;11.534;2022-07-23T05:58:35;21.70;93.50
33207;DHT22;19565;46.602;11.534;2022-07-23T06:01:03;21.60;93.60
33207;DHT22;19565;46.602;11.534;2022-07-23T06:03:31;21.40;94.00
33207;DHT22;19565;46.602;11.534;2022-07-23T06:05:59;21.40;94.00
33207;DHT22;19565;46.602;11.534;2022-07-23T06:08:27;21.70;93.40
33207;DHT22;19565;46.602;11.534;2022-07-23T06:10:56;21.80;92.20
33207;DHT22;19565;46.602;11.534;2022-07-23T06:13:24;21.70;92.00
33207;DHT22;19565;46.602;11.534;2022-07-23T06:15:53;21.80;92.20
33207;DHT22;19565;46.602;11.534;2022-07-23T06:18:21;21.80;92.20
33207;DHT22;19565;46.602;11.534;2022-07-23T06:20:49;21.70;92.10
33207;DHT22;19565;46.602;11.534;2022-07-23T06:23:25;21.90;91.20
33207;DHT22;19565;46.602;11.534;2022-07-23T06:25:54;21.90;91.10
33207;DHT22;19565;46.602;11.534;2022-07-23T06:28:22;21.70;91.10
33207;DHT22;19565;46.602;11.534;2022-07-23T06:30:50;21.90;91.50
33207;DHT22;19565;46.602;11.534;2022-07-23T06:33:20;21.90;91.50
33207;DHT22;19565;46.602;11.534;2022-07-23T06:35:48;21.90;91.10
33207;DHT22;19565;46.602;11.534;2022-07-23T06:38:17;22.00;91.10
33207;DHT22;19565;46.602;11.534;2022-07-23T06:40:45;22.00;91.50
33207;DHT22;19565;46.602;11.534;2022-07-23T06:43:13;21.70;91.90
33207;DHT22;19565;46.602;11.534;2022-07-23T06:45:41;21.80;91.60
33207;DHT22;19565;46.602;11.534;2022-07-23T06:48:09;21.80;91.50
33207;DHT22;19565;46.602;11.534;2022-07-23T06:50:39;21.80;91.30
33207;DHT22;19565;46.602;11.534;2022-07-23T06:53:07;21.80;92.00
33207;DHT22;19565;46.602;11.534;2022-07-23T06:55:35;21.90;92.10
33207;DHT22;19565;46.602;11.534;2022-07-23T06:58:05;22.20;92.20
33207;DHT22;19565;46.602;11.534;2022-07-23T07:00:33;22.60;91.80
33207;DHT22;19565;46.602;11.534;2022-07-23T07:03:01;22.70;91.30
33207;DHT22;19565;46.602;11.534;2022-07-23T07:05:29;22.70;91.10
33207;DHT22;19565;46.602;11.534;2022-07-23T07:07:59;22.80;91.00
33207;DHT22;19565;46.602;11.534;2022-07-23T07:10:27;22.60;91.60
33207;DHT22;19565;46.602;11.534;2022-07-23T07:12:55;22.30;91.80
33207;DHT22;19565;46.602;11.534;2022-07-23T07:15:24;22.20;92.50
33207;DHT22;19565;46.602;11.534;2022-07-23T07:17:52;22.30;92.30
33207;DHT22;19565;46.602;11.534;2022-07-23T07:20:20;22.30;91.00
33207;DHT22;19565;46.602;11.534;2022-07-23T07:22:48;22.70;90.80
33207;DHT22;19565;46.602;11.534;2022-07-23T07:25:18;23.00;88.50
33207;DHT22;19565;46.602;11.534;2022-07-23T07:27:46;23.10;88.40
33207;DHT22;19565;46.602;11.534;2022-07-23T07:30:14;23.30;89.50
33207;DHT22;19565;46.602;11.534;2022-07-23T07:32:43;23.40;88.60
33207;DHT22;19565;46.602;11.534;2022-07-23T07:35:27;23.50;87.70
33207;DHT22;19565;46.602;11.534;2022-07-23T07:37:55;23.50;85.40
33207;DHT22;19565;46.602;11.534;2022-07-23T07:40:25;23.30;83.60
33207;DHT22;19565;46.602;11.534;2022-07-23T07:43:00;23.10;83.50
33207;DHT22;19565;46.602;11.534;2022-07-23T07:45:28;23.10;84.30
33207;DHT22;19565;46.602;11.534;2022-07-23T07:47:56;23.20;85.50
33207;DHT22;19565;46.602;11.534;2022-07-23T07:50:25;23.40;85.10
33207;DHT22;19565;46.602;11.534;2022-07-23T07:52:53;23.60;83.80
33207;DHT22;19565;46.602;11.534;2022-07-23T07:55:21;23.70;83.50
33207;DHT22;19565;46.602;11.534;2022-07-23T07:57:51;23.60;82.30
33207;DHT22;19565;46.602;11.534;2022-07-23T08:00:19;23.60;83.50
33207;DHT22;19565;46.602;11.534;2022-07-23T08:02:48;23.60;83.00
33207;DHT22;19565;46.602;11.534;2022-07-23T08:05:19;23.70;82.70
33207;DHT22;19565;46.602;11.534;2022-07-23T08:07:54;23.60;81.00
33207;DHT22;19565;46.602;11.534;2022-07-23T08:10:23;23.50;80.50
33207;DHT22;19565;46.602;11.534;2022-07-23T08:12:54;23.60;82.20
33207;DHT22;19565;46.602;11.534;2022-07-23T08:15:25;23.60;81.00
33207;DHT22;19565;46.602;11.534;2022-07-23T08:17:53;23.80;81.00
33207;DHT22;19565;46.602;11.534;2022-07-23T08:20:23;23.90;79.80
33207;DHT22;19565;46.602;11.534;2022-07-23T08:22:53;23.90;79.70
33207;DHT22;19565;46.602;11.534;2022-07-23T08:25:23;23.90;77.20
33207;DHT22;19565;46.602;11.534;2022-07-23T08:27:53;23.80;77.10
33207;DHT22;19565;46.602;11.534;2022-07-23T08:30:22;23.90;76.40
33207;DHT22;19565;46.602;11.534;2022-07-23T08:32:52;24.10;74.60
33207;DHT22;19565;46.602;11.534;2022-07-23T08:35:25;24.20;74.70
33207;DHT22;19565;46.602;11.534;2022-07-23T08:37:53;24.30;75.80
33207;DHT22;19565;46.602;11.534;2022-07-23T08:40:22;24.40;76.60
33207;DHT22;19565;46.602;11.534;2022-07-23T08:42:51;24.40;76.10
33207;DHT22;19565;46.602;11.534;2022-07-23T08:45:22;24.40;75.30
33207;DHT22;19565;46.602;11.534;2022-07-23T08:47:52;24.40;74.30
33207;DHT22;19565;46.602;11.534;2022-07-23T08:50:22;24.30;75.30
33207;DHT22;19565;46.602;11.534;2022-07-23T08:52:51;24.50;75.60
33207;DHT22;19565;46.602;11.534;2022-07-23T08:55:22;24.60;75.20
33207;DHT22;19565;46.602;11.534;2022-07-23T08:57:51;24.60;75.80
33207;DHT22;19565;46.602;11.534;2022-07-23T09:00:22;24.60;74.60
33207;DHT22;19565;46.602;11.534;2022-07-23T09:02:50;24.40;74.30
33207;DHT22;19565;46.602;11.534;2022-07-23T09:05:20;24.60;74.60
33207;DHT22;19565;46.602;11.534;2022-07-23T09:08:09;24.60;74.70
33207;DHT22;19565;46.602;11.534;2022-07-23T09:10:45;24.80;75.00
33207;DHT22;19565;46.602;11.534;2022-07-23T09:13:32;24.80;74.20
33207;DHT22;19565;46.602;11.534;2022-07-23T09:16:05;24.80;75.00
33207;DHT22;19565;46.602;11.534;2022-07-23T09:18:37;24.70;76.10
33207;DHT22;19565;46.602;11.534;2022-07-23T09:21:15;24.70;76.70
33207;DHT22;19565;46.602;11.534;2022-07-23T09:23:45;24.70;76.70
33207;DHT22;19565;46.602;11.534;2022-07-23T09:26:25;24.70;76.40
33207;DHT22;19565;46.602;11.534;2022-07-23T09:29:08;24.80;75.90
33207;DHT22;19565;46.602;11.534;2022-07-23T09:31:45;24.70;76.60
33207;DHT22;19565;46.602;11.534;2022-07-23T09:34:16;24.60;76.90
33207;DHT22;19565;46.602;11.534;2022-07-23T09:36:45;24.60;77.20
33207;DHT22;19565;46.602;11.534;2022-07-23T09:39:14;24.70;76.70
33207;DHT22;19565;46.602;11.534;2022-07-23T09:41:46;24.70;76.70
33207;DHT22;19565;46.602;11.534;2022-07-23T09:44:16;24.90;76.50
33207;DHT22;19565;46.602;11.534;2022-07-23T09:46:50;25.00;76.20
33207;DHT22;19565;46.602;11.534;2022-07-23T09:49:21;25.00;75.10
33207;DHT22;19565;46.602;11.534;2022-07-23T09:51:52;24.80;75.70
33207;DHT22;19565;46.602;11.534;2022-07-23T09:54:29;24.60;75.10
33207;DHT22;19565;46.602;11.534;2022-07-23T09:57:01;24.50;76.20
33207;DHT22;19565;46.602;11.534;2022-07-23T09:59:31;24.50;76.20
33207;DHT22;19565;46.602;11.534;2022-07-23T10:02:03;24.80;75.20
33207;DHT22;19565;46.602;11.534;2022-07-23T10:04:33;24.80;74.00
33207;DHT22;19565;46.602;11.534;2022-07-23T10:07:05;25.00;73.50
33207;DHT22;19565;46.602;11.534;2022-07-23T10:09:35;25.10;73.30
33207;DHT22;19565;46.602;11.534;2022-07-23T10:12:09;25.10;73.30
33207;DHT22;19565;46.602;11.534;2022-07-23T10:14:48;25.10;72.50
33207;DHT22;19565;46.602;11.534;2022-07-23T10:17:18;25.30;70.50
33207;DHT22;19565;46.602;11.534;2022-07-23T10:19:46;25.40;69.50
33207;DHT22;19565;46.602;11.534;2022-07-23T10:22:18;25.50;70.10
33207;DHT22;19565;46.602;11.534;2022-07-23T10:24:52;25.60;68.70
33207;DHT22;19565;46.602;11.534;2022-07-23T10:27:38;25.60;67.50
33207;DHT22;19565;46.602;11.534;2022-07-23T10:30:12;25.60;68.00
33207;DHT22;19565;46.602;11.534;2022-07-23T10:32:51;25.70;68.80
33207;DHT22;19565;46.602;11.534;2022-07-23T10:35:26;25.70;69.10
33207;DHT22;19565;46.602;11.534;2022-07-23T10:38:02;25.80;68.20
33207;DHT22;19565;46.602;11.534;2022-07-23T10:40:31;25.80;68.70
33207;DHT22;19565;46.602;11.534;2022-07-23T10:43:00;25.90;68.70
33207;DHT22;19565;46.602;11.534;2022-07-23T10:45:30;25.90;68.00
33207;DHT22;19565;46.602;11.534;2022-07-23T10:48:15;26.00;67.50
33207;DHT22;19565;46.602;11.534;2022-07-23T10:53:28;26.10;67.30
33207;DHT22;19565;46.602;11.534;2022-07-23T10:55:56;26.10;66.60
33207;DHT22;19565;46.602;11.534;2022-07-23T10:58:46;26.10;66.60
33207;DHT22;19565;46.602;11.534;2022-07-23T11:01:34;26.30;67.30
33207;DHT22;19565;46.602;11.534;2022-07-23T11:04:05;26.40;65.00
33207;DHT22;19565;46.602;11.534;2022-07-23T11:07:06;26.40;64.80
33207;DHT22;19565;46.602;11.534;2022-07-23T11:09:39;26.40;63.80
33207;DHT22;19565;46.602;11.534;2022-07-23T11:12:31;26.50;64.30
33207;DHT22;19565;46.602;11.534;2022-07-23T11:15:01;26.50;64.60
33207;DHT22;19565;46.602;11.534;2022-07-23T11:17:30;26.50;63.80
33207;DHT22;19565;46.602;11.534;2022-07-23T11:20:21;26.60;64.10
33207;DHT22;19565;46.602;11.534;2022-07-23T11:22:51;26.70;63.50
33207;DHT22;19565;46.602;11.534;2022-07-23T11:25:36;26.70;62.80
33207;DHT22;19565;46.602;11.534;2022-07-23T11:28:13;26.80;61.20
33207;DHT22;19565;46.602;11.534;2022-07-23T11:30:43;26.80;61.20
33207;DHT22;19565;46.602;11.534;2022-07-23T11:33:21;26.80;61.80
33207;DHT22;19565;46.602;11.534;2022-07-23T11:36:03;26.90;60.70
33207;DHT22;19565;46.602;11.534;2022-07-23T11:38:32;27.00;60.10
33207;DHT22;19565;46.602;11.534;2022-07-23T11:41:00;27.00;59.50
33207;DHT22;19565;46.602;11.534;2022-07-23T11:43:28;27.10;60.20
33207;DHT22;19565;46.602;11.534;2022-07-23T11:45:59;27.20;59.60
33207;DHT22;19565;46.602;11.534;2022-07-23T11:48:29;27.30;58.50
33207;DHT22;19565;46.602;11.534;2022-07-23T11:51:03;27.30;59.10
33207;DHT22;19565;46.602;11.534;2022-07-23T11:53:32;27.40;58.60
33207;DHT22;19565;46.602;11.534;2022-07-23T11:56:05;27.50;56.60
33207;DHT22;19565;46.602;11.534;2022-07-23T11:58:33;27.50;54.20
33207;DHT22;19565;46.602;11.534;2022-07-23T12:01:02;27.60;53.60
33207;DHT22;19565;46.602;11.534;2022-07-23T12:03:30;27.70;52.70
33207;DHT22;19565;46.602;11.534;2022-07-23T12:05:59;27.80;52.40
33207;DHT22;19565;46.602;11.534;2022-07-23T12:08:29;27.90;51.80
33207;DHT22;19565;46.602;11.534;2022-07-23T12:10:57;27.90;52.20
33207;DHT22;19565;46.602;11.534;2022-07-23T12:13:25;28.00;52.70
33207;DHT22;19565;46.602;11.534;2022-07-23T12:15:57;28.10;53.20
33207;DHT22;19565;46.602;11.534;2022-07-23T12:18:26;28.10;53.80
33207;DHT22;19565;46.602;11.534;2022-07-23T12:20:56;28.20;54.40
33207;DHT22;19565;46.602;11.534;2022-07-23T12:23:26;28.30;54.00
33207;DHT22;19565;46.602;11.534;2022-07-23T12:26:01;28.40;53.70
33207;DHT22;19565;46.602;11.534;2022-07-23T12:28:31;28.50;53.70
33207;DHT22;19565;46.602;11.534;2022-07-23T12:31:00;28.60;53.70
33207;DHT22;19565;46.602;11.534;2022-07-23T12:33:30;28.80;53.90
33207;DHT22;19565;46.602;11.534;2022-07-23T12:36:00;28.80;52.40
33207;DHT22;19565;46.602;11.534;2022-07-23T12:38:35;28.80;52.60
33207;DHT22;19565;46.602;11.534;2022-07-23T12:41:05;28.70;51.80
33207;DHT22;19565;46.602;11.534;2022-07-23T12:43:36;28.70;51.90
33207;DHT22;19565;46.602;11.534;2022-07-23T12:46:06;28.70;51.70
33207;DHT22;19565;46.602;11.534;2022-07-23T12:48:36;28.70;52.50
33207;DHT22;19565;46.602;11.534;2022-07-23T12:51:06;28.70;50.70
33207;DHT22;19565;46.602;11.534;2022-07-23T12:53:38;28.60;50.80
33207;DHT22;19565;46.602;11.534;2022-07-23T12:56:11;28.60;50.30
33207;DHT22;19565;46.602;11.534;2022-07-23T12:58:44;28.60;50.60
33207;DHT22;19565;46.602;11.534;2022-07-23T13:01:27;28.60;51.20
33207;DHT22;19565;46.602;11.534;2022-07-23T13:04:02;28.60;51.40
33207;DHT22;19565;46.602;11.534;2022-07-23T13:06:40;28.60;51.90
33207;DHT22;19565;46.602;11.534;2022-07-23T13:09:10;28.60;51.90
33207;DHT22;19565;46.602;11.534;2022-07-23T13:11:41;28.60;50.40
33207;DHT22;19565;46.602;11.534;2022-07-23T13:14:09;28.50;50.40
33207;DHT22;19565;46.602;11.534;2022-07-23T13:16:39;28.50;51.20
33207;DHT22;19565;46.602;11.534;2022-07-23T13:19:07;28.50;51.10
33207;DHT22;19565;46.602;11.534;2022-07-23T13:21:39;28.50;51.60
33207;DHT22;19565;46.602;11.534;2022-07-23T13:24:09;28.50;52.40
33207;DHT22;19565;46.602;11.534;2022-07-23T13:26:40;28.50;52.90
33207;DHT22;19565;46.602;11.534;2022-07-23T13:29:09;28.50;52.70
33207;DHT22;19565;46.602;11.534;2022-07-23T13:31:38;28.50;53.40
33207;DHT22;19565;46.602;11.534;2022-07-23T13:34:07;28.50;53.80
33207;DHT22;19565;46.602;11.534;2022-07-23T13:36:36;28.40;54.60
33207;DHT22;19565;46.602;11.534;2022-07-23T13:39:05;28.40;55.60
33207;DHT22;19565;46.602;11.534;2022-07-23T13:41:36;28.40;55.70
33207;DHT22;19565;46.602;11.534;2022-07-23T13:44:06;28.30;56.30
33207;DHT22;19565;46.602;11.534;2022-07-23T13:46:34;28.10;58.20
33207;DHT22;19565;46.602;11.534;2022-07-23T13:49:03;28.10;59.10
33207;DHT22;19565;46.602;11.534;2022-07-23T13:51:32;28.10;66.40
33207;DHT22;19565;46.602;11.534;2022-07-23T13:54:00;27.90;69.80
33207;DHT22;19565;46.602;11.534;2022-07-23T13:56:29;27.70;73.30
33207;DHT22;19565;46.602;11.534;2022-07-23T13:58:57;27.50;76.70
33207;DHT22;19565;46.602;11.534;2022-07-23T14:01:28;27.30;79.30
33207;DHT22;19565;46.602;11.534;2022-07-23T14:04:16;27.10;80.10
33207;DHT22;19565;46.602;11.534;2022-07-23T14:06:44;27.00;82.40
33207;DHT22;19565;46.602;11.534;2022-07-23T14:09:18;26.70;80.40
33207;DHT22;19565;46.602;11.534;2022-07-23T14:11:46;26.60;81.90
33207;DHT22;19565;46.602;11.534;2022-07-23T14:14:15;26.40;81.70
33207;DHT22;19565;46.602;11.534;2022-07-23T14:16:44;26.50;80.20
33207;DHT22;19565;46.602;11.534;2022-07-23T14:19:12;26.70;79.90
33207;DHT22;19565;46.602;11.534;2022-07-23T14:21:41;26.90;79.60
33207;DHT22;19565;46.602;11.534;2022-07-23T14:24:11;26.90;79.80
33207;DHT22;19565;46.602;11.534;2022-07-23T14:26:39;27.20;79.50
33207;DHT22;19565;46.602;11.534;2022-07-23T14:29:09;27.50;78.40
33207;DHT22;19565;46.602;11.534;2022-07-23T14:31:38;27.80;78.50
33207;DHT22;19565;46.602;11.534;2022-07-23T14:34:07;28.30;75.50
33207;DHT22;19565;46.602;11.534;2022-07-23T14:36:35;29.20;71.10
33207;DHT22;19565;46.602;11.534;2022-07-23T14:39:05;29.90;68.00
33207;DHT22;19565;46.602;11.534;2022-07-23T14:41:36;30.30;65.30
33207;DHT22;19565;46.602;11.534;2022-07-23T14:44:05;29.80;66.00
33207;DHT22;19565;46.602;11.534;2022-07-23T14:46:36;29.00;67.30
33207;DHT22;19565;46.602;11.534;2022-07-23T14:49:04;28.60;67.60
33207;DHT22;19565;46.602;11.534;2022-07-23T14:51:35;28.50;68.50
33207;DHT22;19565;46.602;11.534;2022-07-23T14:54:04;28.30;71.30
33207;DHT22;19565;46.602;11.534;2022-07-23T14:56:32;28.00;75.40
33207;DHT22;19565;46.602;11.534;2022-07-23T14:59:03;27.80;76.70
33207;DHT22;19565;46.602;11.534;2022-07-23T15:01:32;27.50;78.00
33207;DHT22;19565;46.602;11.534;2022-07-23T15:04:01;27.00;79.50
33207;DHT22;19565;46.602;11.534;2022-07-23T15:06:51;26.90;80.10
33207;DHT22;19565;46.602;11.534;2022-07-23T15:09:19;27.00;81.10
33207;DHT22;19565;46.602;11.534;2022-07-23T15:11:47;26.80;81.00
33207;DHT22;19565;46.602;11.534;2022-07-23T15:14:16;26.90;81.50
33207;DHT22;19565;46.602;11.534;2022-07-23T15:16:56;26.90;80.40
33207;DHT22;19565;46.602;11.534;2022-07-23T15:19:25;26.90;79.60
33207;DHT22;19565;46.602;11.534;2022-07-23T15:21:58;27.00;78.80
33207;DHT22;19565;46.602;11.534;2022-07-23T15:24:28;26.80;80.30
33207;DHT22;19565;46.602;11.534;2022-07-23T15:26:57;26.60;81.50
33207;DHT22;19565;46.602;11.534;2022-07-23T15:29:25;26.50;81.40
33207;DHT22;19565;46.602;11.534;2022-07-23T15:31:54;26.40;82.00
33207;DHT22;19565;46.602;11.534;2022-07-23T15:34:25;26.40;81.90
33207;DHT22;19565;46.602;11.534;2022-07-23T15:36:53;26.50;81.40